Chattanooga, Tennessee
Current Conditions -  °F | °C
As of 2:53 PM on Thursday 27 Nov 2014 (Local Time) from KCHA Reporting Station
Broken Clouds Broken Clouds  
Wind Chill: 36°   Ceiling: 3400
Heat Index: 42°   Visibility: 10mi
Dew Point: 26°   Wind: 10mph
Humidity: 53%   Direction: 320°NW
Pressure: 30.34"   Gusts: NA
Location:  35.05°N, 85.31°W
Report Text: KCHA 271953Z 32009KT 10SM BKN034 BKN039 06/M03 A3034 RMK AO2 SLP275 T00561033
Loading
Personal Weather Stations






























Interactive Weather Map New forecast layout! Learn more

10-Day Weather Forecast

Advertisements
Track Severe Weather on mobile